createdAt,value
2022-07-30T00:00:13.074Z,18.94
2022-07-30T00:03:10.298Z,19.18
2022-07-30T00:05:56.126Z,19.11
2022-07-30T00:08:41.506Z,18.93
2022-07-30T00:11:27.985Z,19.09
2022-07-30T00:14:13.621Z,19.00
2022-07-30T00:16:59.463Z,18.92
2022-07-30T00:19:45.050Z,17.99
2022-07-30T00:22:31.113Z,18.17
2022-07-30T00:25:19.055Z,18.65
2022-07-30T00:28:04.816Z,18.27
2022-07-30T00:30:54.929Z,19.00
2022-07-30T00:33:41.883Z,18.89
2022-07-30T00:36:27.506Z,19.01
2022-07-30T00:39:13.362Z,18.01
2022-07-30T00:42:01.130Z,19.04
2022-07-30T00:44:46.684Z,18.79
2022-07-30T00:47:32.118Z,17.86
2022-07-30T00:50:17.926Z,18.91
2022-07-30T00:53:05.083Z,17.84
2022-07-30T00:55:50.712Z,18.65
2022-07-30T00:58:36.176Z,18.57
2022-07-30T01:01:21.711Z,18.72
2022-07-30T01:04:11.950Z,18.59
2022-07-30T01:06:57.796Z,18.80
2022-07-30T01:09:43.323Z,18.61
2022-07-30T01:12:34.070Z,18.83
2022-07-30T01:15:20.189Z,17.69
2022-07-30T01:18:08.872Z,17.66
2022-07-30T01:21:07.697Z,18.82
2022-07-30T01:23:58.481Z,18.79
2022-07-30T01:26:44.535Z,18.75
2022-07-30T01:29:32.319Z,18.65
2022-07-30T01:32:22.031Z,18.31
2022-07-30T01:35:10.067Z,18.33
2022-07-30T01:37:56.907Z,16.94
2022-07-30T01:40:45.088Z,17.65
2022-07-30T01:43:32.936Z,17.45
2022-07-30T01:46:19.707Z,16.59
2022-07-30T01:49:09.417Z,16.55
2022-07-30T01:51:55.323Z,17.65
2022-07-30T01:54:43.791Z,17.27
2022-07-30T01:57:32.128Z,17.47
2022-07-30T02:00:18.640Z,17.66
2022-07-30T02:03:08.541Z,16.91
2022-07-30T02:05:58.559Z,16.59
2022-07-30T02:08:51.290Z,17.75
2022-07-30T02:11:59.747Z,17.84
2022-07-30T02:14:55.251Z,17.88
2022-07-30T02:17:59.224Z,17.92
2022-07-30T02:20:49.471Z,17.90
2022-07-30T02:23:38.675Z,17.84
2022-07-30T02:26:26.513Z,16.63
2022-07-30T02:29:16.722Z,17.83
2022-07-30T02:32:06.303Z,17.42
2022-07-30T02:34:56.217Z,16.69
2022-07-30T02:37:44.457Z,17.75
2022-07-30T02:40:30.676Z,17.68
2022-07-30T02:43:18.386Z,17.23
2022-07-30T02:46:06.159Z,17.78
2022-07-30T02:49:13.871Z,17.48
2022-07-30T02:52:03.316Z,17.78
2022-07-30T02:54:51.827Z,17.65
2022-07-30T02:57:43.221Z,17.79
2022-07-30T03:00:32.233Z,17.73
2022-07-30T03:03:18.855Z,17.74
2022-07-30T03:06:06.414Z,17.58
2022-07-30T03:08:53.849Z,17.83
2022-07-30T03:11:41.346Z,17.55
2022-07-30T03:14:27.418Z,17.45
2022-07-30T03:17:16.047Z,17.79
2022-07-30T03:20:04.635Z,17.63
2022-07-30T03:22:53.250Z,17.32
2022-07-30T03:25:42.502Z,17.49
2022-07-30T03:28:31.876Z,16.96
2022-07-30T03:31:18.703Z,17.26
2022-07-30T03:34:06.598Z,16.71
2022-07-30T03:36:55.108Z,17.80
2022-07-30T03:39:40.896Z,17.75
2022-07-30T03:42:27.306Z,17.22
2022-07-30T03:45:14.449Z,17.88
2022-07-30T03:48:00.699Z,17.91
2022-07-30T03:50:47.016Z,17.95
2022-07-30T03:53:33.804Z,17.99
2022-07-30T03:56:38.931Z,18.01
2022-07-30T03:59:51.893Z,18.02
2022-07-30T04:02:44.753Z,17.72
2022-07-30T04:05:41.129Z,17.48
2022-07-30T04:08:31.894Z,17.84
2022-07-30T04:11:17.757Z,17.85
2022-07-30T04:14:27.838Z,17.34
2022-07-30T04:17:29.981Z,17.70
2022-07-30T04:20:24.221Z,17.37
2022-07-30T04:23:11.426Z,16.89
2022-07-30T04:26:00.275Z,18.12
2022-07-30T04:28:46.964Z,17.94
2022-07-30T04:31:38.255Z,18.21
2022-07-30T04:34:51.358Z,18.32
2022-07-30T04:37:51.839Z,18.21
2022-07-30T04:40:38.090Z,17.93
2022-07-30T04:43:23.942Z,18.52
2022-07-30T04:46:10.400Z,18.54
2022-07-30T04:48:56.840Z,18.41
2022-07-30T04:51:45.600Z,18.98
2022-07-30T04:54:55.890Z,19.17
2022-07-30T04:57:42.804Z,19.12
2022-07-30T05:00:32.400Z,19.68
2022-07-30T05:03:20.723Z,19.78
2022-07-30T05:06:12.372Z,19.41
2022-07-30T05:08:59.971Z,20.87
2022-07-30T05:11:54.225Z,21.23
2022-07-30T05:14:39.675Z,20.35
2022-07-30T05:17:27.269Z,21.61
2022-07-30T05:20:13.030Z,21.47
2022-07-30T05:23:19.031Z,20.73
2022-07-30T05:26:19.959Z,22.10
2022-07-30T05:29:08.184Z,21.75
2022-07-30T05:32:04.964Z,21.87
2022-07-30T05:34:55.203Z,22.43
2022-07-30T05:37:41.114Z,22.46
2022-07-30T05:40:27.221Z,22.50
2022-07-30T05:43:24.045Z,22.57
2022-07-30T05:46:10.764Z,22.30
2022-07-30T05:48:57.702Z,22.54
2022-07-30T05:51:44.410Z,22.76
2022-07-30T05:54:31.462Z,22.89
2022-07-30T05:57:37.381Z,22.62
2022-07-30T06:00:24.664Z,23.15
2022-07-30T06:03:13.244Z,23.21
2022-07-30T06:06:22.920Z,22.23
2022-07-30T06:09:10.098Z,23.34
2022-07-30T06:11:57.553Z,23.17
2022-07-30T06:14:44.114Z,23.01
2022-07-30T06:17:41.556Z,23.63
2022-07-30T06:20:33.731Z,23.76
2022-07-30T06:23:30.908Z,23.91
2022-07-30T06:26:40.876Z,23.98
2022-07-30T06:29:27.547Z,24.01
2022-07-30T06:32:13.915Z,24.11
2022-07-30T06:35:04.761Z,24.12
2022-07-30T06:38:00.524Z,24.20
2022-07-30T06:41:02.772Z,24.27
2022-07-30T06:44:07.124Z,24.37
2022-07-30T06:47:26.316Z,24.15
2022-07-30T06:50:13.046Z,24.46
2022-07-30T06:52:59.684Z,24.32
2022-07-30T06:56:00.498Z,24.58
2022-07-30T06:58:53.792Z,24.72
2022-07-30T07:01:59.408Z,24.87
2022-07-30T07:04:45.959Z,24.91
2022-07-30T07:07:41.792Z,23.98
2022-07-30T07:10:30.656Z,24.65
2022-07-30T07:13:29.431Z,25.12
2022-07-30T07:16:16.819Z,25.15
2022-07-30T07:19:07.032Z,25.24
2022-07-30T07:21:53.138Z,25.21
2022-07-30T07:24:39.737Z,24.81
2022-07-30T07:27:28.911Z,25.36
2022-07-30T07:30:18.683Z,25.36
2022-07-30T07:33:05.857Z,25.35
2022-07-30T07:35:54.915Z,25.35
2022-07-30T07:38:46.764Z,25.19
2022-07-30T07:41:48.706Z,25.26
2022-07-30T07:44:40.671Z,25.03
2022-07-30T07:47:27.259Z,24.92
2022-07-30T07:50:27.736Z,25.44
2022-07-30T07:53:13.591Z,25.46
2022-07-30T07:55:59.796Z,25.29
2022-07-30T07:58:47.737Z,25.58
2022-07-30T08:01:35.810Z,25.79
2022-07-30T08:04:43.865Z,25.80
2022-07-30T08:07:30.815Z,25.88
2022-07-30T08:10:39.789Z,24.84
2022-07-30T08:13:52.683Z,25.92
2022-07-30T08:16:57.710Z,25.90
2022-07-30T08:20:05.284Z,26.01
2022-07-30T08:22:51.985Z,25.86
2022-07-30T08:25:37.883Z,26.04
2022-07-30T08:28:36.243Z,25.71
2022-07-30T08:31:24.704Z,26.22
2022-07-30T08:34:14.619Z,26.00
2022-07-30T08:37:01.341Z,26.26
2022-07-30T08:39:47.253Z,26.02
2022-07-30T08:42:35.218Z,26.38
2022-07-30T08:45:34.573Z,26.45
2022-07-30T08:48:53.896Z,26.45
2022-07-30T08:51:43.019Z,26.21
2022-07-30T08:54:53.723Z,26.15
2022-07-30T08:57:41.134Z,26.31
2022-07-30T09:00:31.513Z,26.16
2022-07-30T09:03:17.392Z,25.65
2022-07-30T09:06:04.773Z,26.66
2022-07-30T09:08:51.016Z,26.37
2022-07-30T09:11:37.365Z,26.55
2022-07-30T09:14:24.171Z,26.82
2022-07-30T09:17:18.650Z,26.88
2022-07-30T09:20:10.741Z,26.91
2022-07-30T09:23:02.355Z,26.96
2022-07-30T09:26:08.591Z,27.02
2022-07-30T09:29:21.449Z,27.26
2022-07-30T09:32:52.302Z,27.34
2022-07-30T09:35:56.282Z,26.80
2022-07-30T09:39:00.858Z,27.33
2022-07-30T09:42:21.105Z,26.49
2022-07-30T09:45:15.827Z,27.46
2022-07-30T09:48:21.964Z,27.46
2022-07-30T09:51:15.615Z,27.47
2022-07-30T09:54:04.788Z,27.69
2022-07-30T09:57:25.602Z,27.71
2022-07-30T10:00:23.621Z,26.82
2022-07-30T10:03:33.789Z,27.81
2022-07-30T10:07:16.720Z,27.02
2022-07-30T10:10:13.323Z,28.03
2022-07-30T10:13:07.623Z,28.07
2022-07-30T10:15:53.858Z,28.11
2022-07-30T10:18:42.642Z,28.12
2022-07-30T10:21:51.158Z,27.11
2022-07-30T10:25:16.279Z,28.15
2022-07-30T10:28:37.070Z,28.20
2022-07-30T10:31:47.953Z,28.20
2022-07-30T10:34:34.511Z,28.23
2022-07-30T10:37:23.531Z,28.26
2022-07-30T10:40:18.322Z,27.49
2022-07-30T10:43:52.932Z,28.42
2022-07-30T10:47:07.847Z,28.47
2022-07-30T10:50:06.640Z,28.43
2022-07-30T10:52:58.971Z,28.27
2022-07-30T10:55:46.473Z,28.29
2022-07-30T10:58:58.146Z,28.49
2022-07-30T11:01:51.778Z,28.34
2022-07-30T11:04:39.889Z,28.41
2022-07-30T11:07:31.514Z,27.30
2022-07-30T11:10:36.411Z,28.37
2022-07-30T11:13:49.177Z,28.31
2022-07-30T11:16:35.567Z,28.25
2022-07-30T11:19:53.422Z,28.05
2022-07-30T11:22:39.094Z,28.25
2022-07-30T11:25:50.573Z,27.82
2022-07-30T11:28:36.987Z,28.21
2022-07-30T11:31:30.700Z,28.51
2022-07-30T11:34:32.880Z,28.60
2022-07-30T11:37:22.204Z,28.59
2022-07-30T11:40:26.181Z,28.41
2022-07-30T11:43:36.107Z,28.63
2022-07-30T11:46:28.504Z,28.64
2022-07-30T11:49:15.987Z,28.69
2022-07-30T11:52:02.622Z,28.75
2022-07-30T11:54:55.803Z,28.77
2022-07-30T11:57:42.774Z,28.81
2022-07-30T12:00:36.293Z,28.78
2022-07-30T12:03:26.479Z,27.89
2022-07-30T12:06:22.381Z,28.70
2022-07-30T12:09:08.799Z,28.86
2022-07-30T12:11:57.893Z,28.91
2022-07-30T12:14:43.666Z,28.92
2022-07-30T12:17:45.799Z,28.93
2022-07-30T12:20:31.884Z,28.06
2022-07-30T12:23:21.917Z,28.91
2022-07-30T12:26:09.040Z,28.67
2022-07-30T12:28:59.629Z,28.94
2022-07-30T12:31:46.249Z,29.05
2022-07-30T12:34:33.858Z,29.05
2022-07-30T12:37:20.354Z,29.13
2022-07-30T12:40:15.115Z,29.22
2022-07-30T12:43:01.349Z,29.26
2022-07-30T12:45:51.930Z,29.23
2022-07-30T12:48:58.235Z,29.07
2022-07-30T12:52:00.184Z,27.96
2022-07-30T12:54:57.322Z,28.47
2022-07-30T12:58:07.981Z,29.21
2022-07-30T13:00:55.697Z,29.38
2022-07-30T13:03:41.939Z,29.37
2022-07-30T13:06:27.762Z,29.08
2022-07-30T13:09:21.175Z,28.86
2022-07-30T13:12:07.220Z,29.18
2022-07-30T13:14:53.310Z,29.08
2022-07-30T13:17:39.217Z,28.97
2022-07-30T13:20:24.839Z,28.94
2022-07-30T13:23:11.267Z,28.79
2022-07-30T13:25:58.289Z,28.80
2022-07-30T13:28:46.533Z,27.85
2022-07-30T13:31:42.885Z,28.79
2022-07-30T13:34:29.697Z,28.71
2022-07-30T13:37:15.962Z,28.80
2022-07-30T13:40:02.044Z,28.76
2022-07-30T13:42:49.855Z,27.95
2022-07-30T13:45:36.524Z,28.90
2022-07-30T13:48:23.137Z,28.91
2022-07-30T13:51:08.908Z,28.90
2022-07-30T13:53:55.249Z,28.72
2022-07-30T13:56:41.947Z,28.91
2022-07-30T13:59:28.409Z,28.89
2022-07-30T14:02:15.047Z,28.25
2022-07-30T14:05:08.989Z,28.81
2022-07-30T14:07:55.625Z,27.90
2022-07-30T14:10:41.336Z,28.62
2022-07-30T14:13:27.222Z,28.00
2022-07-30T14:16:42.372Z,28.63
2022-07-30T14:19:23.833Z,27.77
2022-07-30T14:22:11.987Z,28.73
2022-07-30T14:24:57.924Z,27.86
2022-07-30T14:27:44.495Z,28.75
2022-07-30T14:30:33.905Z,28.27
2022-07-30T14:33:20.143Z,27.86
2022-07-30T14:36:06.979Z,28.52
2022-07-30T14:38:56.527Z,28.78
2022-07-30T14:41:43.721Z,28.56
2022-07-30T14:44:29.373Z,28.76
2022-07-30T14:47:15.444Z,28.76
2022-07-30T14:50:01.582Z,28.67
2022-07-30T14:52:49.566Z,28.58
2022-07-30T14:55:35.666Z,28.68
2022-07-30T14:58:21.628Z,28.69
2022-07-30T15:01:15.633Z,28.62
2022-07-30T15:04:02.267Z,27.76
2022-07-30T15:06:48.132Z,28.68
2022-07-30T15:09:34.361Z,28.66
2022-07-30T15:12:23.735Z,28.49
2022-07-30T15:15:12.778Z,28.50
2022-07-30T15:18:01.377Z,28.70
2022-07-30T15:20:47.457Z,28.49
2022-07-30T15:23:33.114Z,28.67
2022-07-30T15:26:19.079Z,28.64
2022-07-30T15:29:05.268Z,28.41
2022-07-30T15:31:52.250Z,28.52
2022-07-30T15:34:41.451Z,28.58
2022-07-30T15:37:27.411Z,28.59
2022-07-30T15:40:13.343Z,28.40
2022-07-30T15:42:59.317Z,28.37
2022-07-30T15:45:55.373Z,28.34
2022-07-30T15:48:42.394Z,28.60
2022-07-30T15:51:28.458Z,28.61
2022-07-30T15:54:15.691Z,28.52
2022-07-30T15:57:08.688Z,28.00
2022-07-30T15:59:54.482Z,28.58
2022-07-30T16:02:41.411Z,28.54
2022-07-30T16:05:27.645Z,28.58
2022-07-30T16:08:33.853Z,28.49
2022-07-30T16:11:20.378Z,28.47
2022-07-30T16:14:07.475Z,28.44
2022-07-30T16:16:53.264Z,28.36
2022-07-30T16:19:39.579Z,28.26
2022-07-30T16:22:25.735Z,28.11
2022-07-30T16:25:11.663Z,27.86
2022-07-30T16:27:58.248Z,27.99
2022-07-30T16:30:50.880Z,27.61
2022-07-30T16:33:38.130Z,27.79
2022-07-30T16:36:24.173Z,27.78
2022-07-30T16:39:13.048Z,27.74
2022-07-30T16:42:00.984Z,27.65
2022-07-30T16:44:48.132Z,27.64
2022-07-30T16:47:34.599Z,27.55
2022-07-30T16:50:21.946Z,27.15
2022-07-30T16:53:13.841Z,27.11
2022-07-30T16:56:00.315Z,27.39
2022-07-30T16:58:46.703Z,27.25
2022-07-30T17:01:33.373Z,27.25
2022-07-30T17:04:19.712Z,26.31
2022-07-30T17:07:06.238Z,26.19
2022-07-30T17:09:53.768Z,26.57
2022-07-30T17:12:40.137Z,26.24
2022-07-30T17:15:32.933Z,26.92
2022-07-30T17:18:20.193Z,26.94
2022-07-30T17:21:08.738Z,26.91
2022-07-30T17:23:55.200Z,26.84
2022-07-30T17:26:47.038Z,26.36
2022-07-30T17:29:33.845Z,26.73
2022-07-30T17:32:23.474Z,26.64
2022-07-30T17:35:13.745Z,23.98
2022-07-30T17:38:00.248Z,26.70
2022-07-30T17:40:47.597Z,26.68
2022-07-30T17:43:36.735Z,26.78
2022-07-30T17:46:23.555Z,26.59
2022-07-30T17:49:09.336Z,26.72
2022-07-30T17:52:00.739Z,26.68
2022-07-30T17:54:50.646Z,26.65
2022-07-30T17:57:39.378Z,25.97
2022-07-30T18:00:25.363Z,26.55
2022-07-30T18:03:12.132Z,26.49
2022-07-30T18:05:59.945Z,26.50
2022-07-30T18:08:45.721Z,25.51
2022-07-30T18:11:32.124Z,26.46
2022-07-30T18:14:24.046Z,26.33
2022-07-30T18:17:14.107Z,26.45
2022-07-30T18:20:00.735Z,26.07
2022-07-30T18:22:46.927Z,26.18
2022-07-30T18:25:51.514Z,26.12
2022-07-30T18:28:38.452Z,26.28
2022-07-30T18:31:24.029Z,25.48
2022-07-30T18:34:09.649Z,26.20
2022-07-30T18:36:55.723Z,26.26
2022-07-30T18:39:41.922Z,25.91
2022-07-30T18:42:28.325Z,26.11
2022-07-30T18:45:14.239Z,26.12
2022-07-30T18:48:00.857Z,26.18
2022-07-30T18:50:46.779Z,25.37
2022-07-30T18:53:34.172Z,25.84
2022-07-30T18:56:25.545Z,25.99
2022-07-30T18:59:11.667Z,25.94
2022-07-30T19:01:57.747Z,25.85
2022-07-30T19:04:43.921Z,25.94
2022-07-30T19:07:29.769Z,25.95
2022-07-30T19:10:34.599Z,25.79
2022-07-30T19:13:23.716Z,24.98
2022-07-30T19:16:10.630Z,24.98
2022-07-30T19:18:56.411Z,25.95
2022-07-30T19:21:43.658Z,25.91
2022-07-30T19:24:30.027Z,25.86
2022-07-30T19:27:15.581Z,25.80
2022-07-30T19:30:03.569Z,25.55
2022-07-30T19:32:49.632Z,25.53
2022-07-30T19:35:36.337Z,25.68
2022-07-30T19:38:24.472Z,25.52
2022-07-30T19:41:11.724Z,24.75
2022-07-30T19:44:00.564Z,25.57
2022-07-30T19:46:48.913Z,25.56
2022-07-30T19:49:41.238Z,25.51
2022-07-30T19:52:27.468Z,25.44
2022-07-30T19:55:30.615Z,25.37
2022-07-30T19:58:19.702Z,25.27
2022-07-30T20:01:08.879Z,25.10
2022-07-30T20:03:55.955Z,25.14
2022-07-30T20:06:49.138Z,24.84
2022-07-30T20:09:35.275Z,25.04
2022-07-30T20:12:21.053Z,24.69
2022-07-30T20:15:14.684Z,24.97
2022-07-30T20:18:00.994Z,25.00
2022-07-30T20:20:58.290Z,25.03
2022-07-30T20:23:46.483Z,24.80
2022-07-30T20:26:33.619Z,24.34
2022-07-30T20:29:20.619Z,24.11
2022-07-30T20:32:08.762Z,24.71
2022-07-30T20:34:55.618Z,24.60
2022-07-30T20:37:55.208Z,24.70
2022-07-30T20:40:42.877Z,24.75
2022-07-30T20:43:29.822Z,24.77
2022-07-30T20:46:16.779Z,23.82
2022-07-30T20:49:03.622Z,24.78
2022-07-30T20:51:51.855Z,24.40
2022-07-30T20:54:43.654Z,24.55
2022-07-30T20:57:55.954Z,24.74
2022-07-30T21:00:38.037Z,24.02
2022-07-30T21:03:24.166Z,24.39
2022-07-30T21:06:10.786Z,24.64
2022-07-30T21:08:57.577Z,24.50
2022-07-30T21:11:50.231Z,24.54
2022-07-30T21:14:36.621Z,24.55
2022-07-30T21:17:23.349Z,24.48
2022-07-30T21:20:10.575Z,24.46
2022-07-30T21:23:10.960Z,23.65
2022-07-30T21:29:03.066Z,23.95
2022-07-30T21:32:01.083Z,24.42
2022-07-30T21:34:49.042Z,24.41
2022-07-30T21:37:36.977Z,24.18
2022-07-30T21:40:24.815Z,23.38
2022-07-30T21:43:10.639Z,24.31
2022-07-30T21:45:58.418Z,24.14
2022-07-30T21:48:43.851Z,23.95
2022-07-30T21:51:29.273Z,24.13
2022-07-30T21:54:28.625Z,24.01
2022-07-30T21:57:23.309Z,23.09
2022-07-30T22:00:21.941Z,23.21
2022-07-30T22:03:15.978Z,23.94
2022-07-30T22:06:14.191Z,23.90
2022-07-30T22:08:59.853Z,22.88
2022-07-30T22:11:48.596Z,23.76
2022-07-30T22:14:34.211Z,23.78
2022-07-30T22:17:23.303Z,22.72
2022-07-30T22:20:22.556Z,23.76
2022-07-30T22:23:08.749Z,23.19
2022-07-30T22:25:54.537Z,23.76
2022-07-30T22:28:46.703Z,23.75
2022-07-30T22:34:44.846Z,22.55
2022-07-30T22:37:34.101Z,23.45
2022-07-30T22:40:19.877Z,23.39
2022-07-30T22:43:12.891Z,23.12
2022-07-30T22:46:01.395Z,23.23
2022-07-30T22:48:46.945Z,22.47
2022-07-30T22:51:50.185Z,23.20
2022-07-30T22:54:39.635Z,22.60
2022-07-30T22:57:24.956Z,23.04
2022-07-30T23:00:14.369Z,23.24
2022-07-30T23:03:12.914Z,23.04
2022-07-30T23:06:02.118Z,22.25
2022-07-30T23:08:49.280Z,22.52
2022-07-30T23:12:27.229Z,24.20
2022-07-30T23:12:28.905Z,23.48
2022-07-30T23:12:34.139Z,23.31
2022-07-30T23:14:40.329Z,23.18
2022-07-30T23:17:25.835Z,23.20
2022-07-30T23:20:15.055Z,23.18
2022-07-30T23:23:01.588Z,23.18
2022-07-30T23:25:47.370Z,23.16
2022-07-30T23:28:33.084Z,22.74
2022-07-30T23:31:18.839Z,22.97
2022-07-30T23:34:06.354Z,22.87
2022-07-30T23:36:52.308Z,22.88
2022-07-30T23:39:38.339Z,22.81
2022-07-30T23:42:23.998Z,22.86
2022-07-30T23:45:09.593Z,22.88
2022-07-30T23:48:00.764Z,22.00
2022-07-30T23:50:49.108Z,22.86
2022-07-30T23:53:34.793Z,22.75
2022-07-30T23:56:20.208Z,22.76
2022-07-30T23:59:05.616Z,22.70
